sensor_id;sensor_type;location;lat;lon;timestamp;temperature;humidity
59162;DHT22;44942;48.936;8.260;2023-01-29T00:03:19;20.40;48.90
59162;DHT22;44942;48.936;8.260;2023-01-29T00:08:19;20.40;49.00
59162;DHT22;44942;48.936;8.260;2023-01-29T00:13:20;20.40;49.00
59162;DHT22;44942;48.936;8.260;2023-01-29T00:18:20;20.40;49.00
59162;DHT22;44942;48.936;8.260;2023-01-29T00:23:21;20.40;49.20
59162;DHT22;44942;48.936;8.260;2023-01-29T00:28:22;20.40;49.20
59162;DHT22;44942;48.936;8.260;2023-01-29T00:33:23;20.40;49.30
59162;DHT22;44942;48.936;8.260;2023-01-29T00:38:23;20.40;49.30
59162;DHT22;44942;48.936;8.260;2023-01-29T00:43:24;20.40;49.90
59162;DHT22;44942;48.936;8.260;2023-01-29T00:48:43;20.30;49.20
59162;DHT22;44942;48.936;8.260;2023-01-29T00:53:44;20.30;49.30
59162;DHT22;44942;48.936;8.260;2023-01-29T00:58:45;20.30;49.30
59162;DHT22;44942;48.936;8.260;2023-01-29T01:03:45;20.30;49.30
59162;DHT22;44942;48.936;8.260;2023-01-29T01:08:46;20.30;49.30
59162;DHT22;44942;48.936;8.260;2023-01-29T01:14:05;20.30;49.30
59162;DHT22;44942;48.936;8.260;2023-01-29T01:19:06;20.30;49.30
59162;DHT22;44942;48.936;8.260;2023-01-29T01:24:07;20.30;49.50
59162;DHT22;44942;48.936;8.260;2023-01-29T01:29:07;20.30;49.50
59162;DHT22;44942;48.936;8.260;2023-01-29T01:34:08;20.30;49.60
59162;DHT22;44942;48.936;8.260;2023-01-29T01:39:09;20.30;49.60
59162;DHT22;44942;48.936;8.260;2023-01-29T01:49:47;20.30;49.50
59162;DHT22;44942;48.936;8.260;2023-01-29T01:54:48;20.30;49.50
59162;DHT22;44942;48.936;8.260;2023-01-29T02:00:09;20.30;49.40
59162;DHT22;44942;48.936;8.260;2023-01-29T02:05:12;20.30;49.40
59162;DHT22;44942;48.936;8.260;2023-01-29T02:10:38;20.20;49.30
59162;DHT22;44942;48.936;8.260;2023-01-29T02:15:41;20.20;49.30
59162;DHT22;44942;48.936;8.260;2023-01-29T02:26:37;20.20;49.30
59162;DHT22;44942;48.936;8.260;2023-01-29T02:31:43;20.20;49.30
59162;DHT22;44942;48.936;8.260;2023-01-29T02:36:53;20.20;49.30
59162;DHT22;44942;48.936;8.260;2023-01-29T02:42:37;20.20;49.30
59162;DHT22;44942;48.936;8.260;2023-01-29T02:47:47;20.20;49.30
59162;DHT22;44942;48.936;8.260;2023-01-29T02:58:14;20.20;49.90
59162;DHT22;44942;48.936;8.260;2023-01-29T03:03:37;20.20;49.30
59162;DHT22;44942;48.936;8.260;2023-01-29T03:08:41;20.10;49.30
59162;DHT22;44942;48.936;8.260;2023-01-29T03:13:55;20.10;49.20
59162;DHT22;44942;48.936;8.260;2023-01-29T03:19:04;20.10;49.20
59162;DHT22;44942;48.936;8.260;2023-01-29T03:24:09;20.10;49.20
59162;DHT22;44942;48.936;8.260;2023-01-29T03:29:33;20.10;49.30
59162;DHT22;44942;48.936;8.260;2023-01-29T03:34:57;20.10;49.30
59162;DHT22;44942;48.936;8.260;2023-01-29T03:40:02;20.10;49.30
59162;DHT22;44942;48.936;8.260;2023-01-29T03:45:15;20.10;49.40
59162;DHT22;44942;48.936;8.260;2023-01-29T03:50:46;20.10;49.40
59162;DHT22;44942;48.936;8.260;2023-01-29T04:06:43;20.10;49.40
59162;DHT22;44942;48.936;8.260;2023-01-29T04:11:52;20.10;49.50
59162;DHT22;44942;48.936;8.260;2023-01-29T04:16:56;20.10;49.50
59162;DHT22;44942;48.936;8.260;2023-01-29T04:22:22;20.00;49.50
59162;DHT22;44942;48.936;8.260;2023-01-29T04:27:56;20.00;49.40
59162;DHT22;44942;48.936;8.260;2023-01-29T04:49:31;20.00;49.30
59162;DHT22;44942;48.936;8.260;2023-01-29T04:59:44;20.00;49.30
59162;DHT22;44942;48.936;8.260;2023-01-29T05:04:48;20.00;49.30
59162;DHT22;44942;48.936;8.260;2023-01-29T05:09:49;20.00;49.30
59162;DHT22;44942;48.936;8.260;2023-01-29T05:14:50;19.90;49.20
59162;DHT22;44942;48.936;8.260;2023-01-29T05:19:52;19.90;49.20
59162;DHT22;44942;48.936;8.260;2023-01-29T05:24:54;19.90;49.20
59162;DHT22;44942;48.936;8.260;2023-01-29T05:29:54;19.90;49.20
59162;DHT22;44942;48.936;8.260;2023-01-29T05:34:56;19.90;49.20
59162;DHT22;44942;48.936;8.260;2023-01-29T05:39:57;19.90;49.30
59162;DHT22;44942;48.936;8.260;2023-01-29T05:44:57;19.90;49.20
59162;DHT22;44942;48.936;8.260;2023-01-29T05:49:58;19.90;49.30
59162;DHT22;44942;48.936;8.260;2023-01-29T05:54:58;19.90;49.30
59162;DHT22;44942;48.936;8.260;2023-01-29T05:59:59;19.90;49.30
59162;DHT22;44942;48.936;8.260;2023-01-29T06:05:00;19.90;49.40
59162;DHT22;44942;48.936;8.260;2023-01-29T06:10:01;19.90;49.40
59162;DHT22;44942;48.936;8.260;2023-01-29T06:15:01;19.90;49.40
59162;DHT22;44942;48.936;8.260;2023-01-29T06:20:03;19.90;49.50
59162;DHT22;44942;48.936;8.260;2023-01-29T06:25:03;19.80;49.50
59162;DHT22;44942;48.936;8.260;2023-01-29T06:30:05;19.80;49.50
59162;DHT22;44942;48.936;8.260;2023-01-29T06:35:06;19.80;49.50
59162;DHT22;44942;48.936;8.260;2023-01-29T06:40:07;19.80;49.50
59162;DHT22;44942;48.936;8.260;2023-01-29T06:45:08;19.80;49.50
59162;DHT22;44942;48.936;8.260;2023-01-29T06:50:10;19.80;49.40
59162;DHT22;44942;48.936;8.260;2023-01-29T06:55:10;19.80;49.40
59162;DHT22;44942;48.936;8.260;2023-01-29T07:00:12;19.80;49.30
59162;DHT22;44942;48.936;8.260;2023-01-29T07:05:12;19.80;49.30
59162;DHT22;44942;48.936;8.260;2023-01-29T07:10:13;19.80;49.30
59162;DHT22;44942;48.936;8.260;2023-01-29T07:15:14;19.80;49.40
59162;DHT22;44942;48.936;8.260;2023-01-29T07:20:18;19.70;49.40
59162;DHT22;44942;48.936;8.260;2023-01-29T07:25:20;19.70;49.30
59162;DHT22;44942;48.936;8.260;2023-01-29T07:30:21;19.70;49.40
59162;DHT22;44942;48.936;8.260;2023-01-29T07:35:21;19.70;49.30
59162;DHT22;44942;48.936;8.260;2023-01-29T07:40:22;19.70;49.20
59162;DHT22;44942;48.936;8.260;2023-01-29T07:45:23;19.70;49.20
59162;DHT22;44942;48.936;8.260;2023-01-29T07:50:24;19.70;49.20
59162;DHT22;44942;48.936;8.260;2023-01-29T07:55:25;19.70;49.20
59162;DHT22;44942;48.936;8.260;2023-01-29T08:00:27;19.70;49.20
59162;DHT22;44942;48.936;8.260;2023-01-29T08:05:27;18.00;44.70
59162;DHT22;44942;48.936;8.260;2023-01-29T08:10:28;16.50;42.20
59162;DHT22;44942;48.936;8.260;2023-01-29T08:15:29;16.50;42.70
59162;DHT22;44942;48.936;8.260;2023-01-29T08:20:30;17.20;43.20
59162;DHT22;44942;48.936;8.260;2023-01-29T08:25:31;17.70;43.50
59162;DHT22;44942;48.936;8.260;2023-01-29T08:30:33;18.00;43.90
59162;DHT22;44942;48.936;8.260;2023-01-29T08:35:34;18.20;44.30
59162;DHT22;44942;48.936;8.260;2023-01-29T08:40:34;18.30;44.60
59162;DHT22;44942;48.936;8.260;2023-01-29T08:45:39;18.30;44.80
59162;DHT22;44942;48.936;8.260;2023-01-29T08:50:40;18.50;45.20
59162;DHT22;44942;48.936;8.260;2023-01-29T08:55:40;18.50;45.40
59162;DHT22;44942;48.936;8.260;2023-01-29T09:00:41;18.50;45.60
59162;DHT22;44942;48.936;8.260;2023-01-29T09:05:41;18.60;45.80
59162;DHT22;44942;48.936;8.260;2023-01-29T09:10:42;18.60;46.00
59162;DHT22;44942;48.936;8.260;2023-01-29T09:15:43;18.70;46.40
59162;DHT22;44942;48.936;8.260;2023-01-29T09:20:43;18.70;46.80
59162;DHT22;44942;48.936;8.260;2023-01-29T09:25:44;18.70;47.00
59162;DHT22;44942;48.936;8.260;2023-01-29T09:30:44;18.80;47.30
59162;DHT22;44942;48.936;8.260;2023-01-29T09:35:45;18.70;46.20
59162;DHT22;44942;48.936;8.260;2023-01-29T09:51:26;18.10;42.10
59162;DHT22;44942;48.936;8.260;2023-01-29T09:56:28;18.20;41.60
59162;DHT22;44942;48.936;8.260;2023-01-29T10:07:16;18.40;41.80
59162;DHT22;44942;48.936;8.260;2023-01-29T10:33:24;18.60;42.70
59162;DHT22;44942;48.936;8.260;2023-01-29T11:00:07;18.70;43.20
59162;DHT22;44942;48.936;8.260;2023-01-29T11:10:29;18.70;43.40
59162;DHT22;44942;48.936;8.260;2023-01-29T11:15:32;18.80;43.50
59162;DHT22;44942;48.936;8.260;2023-01-29T11:20:35;18.80;43.70
59162;DHT22;44942;48.936;8.260;2023-01-29T11:25:36;18.80;43.80
59162;DHT22;44942;48.936;8.260;2023-01-29T11:30:38;18.80;43.90
59162;DHT22;44942;48.936;8.260;2023-01-29T11:35:39;18.80;44.10
59162;DHT22;44942;48.936;8.260;2023-01-29T11:40:40;18.90;44.30
59162;DHT22;44942;48.936;8.260;2023-01-29T11:45:41;18.90;44.50
59162;DHT22;44942;48.936;8.260;2023-01-29T11:50:42;18.90;44.70
59162;DHT22;44942;48.936;8.260;2023-01-29T11:55:45;18.90;44.80
59162;DHT22;44942;48.936;8.260;2023-01-29T12:00:49;19.00;45.00
59162;DHT22;44942;48.936;8.260;2023-01-29T12:06:00;19.00;45.30
59162;DHT22;44942;48.936;8.260;2023-01-29T12:16:24;19.10;45.70
59162;DHT22;44942;48.936;8.260;2023-01-29T12:21:34;19.10;45.90
59162;DHT22;44942;48.936;8.260;2023-01-29T12:26:43;19.10;46.10
59162;DHT22;44942;48.936;8.260;2023-01-29T12:32:13;19.20;46.30
59162;DHT22;44942;48.936;8.260;2023-01-29T12:42:52;19.20;46.80
59162;DHT22;44942;48.936;8.260;2023-01-29T12:47:57;19.20;46.80
59162;DHT22;44942;48.936;8.260;2023-01-29T12:58:28;19.30;47.90
59162;DHT22;44942;48.936;8.260;2023-01-29T13:03:49;19.30;47.30
59162;DHT22;44942;48.936;8.260;2023-01-29T13:08:53;19.30;47.50
59162;DHT22;44942;48.936;8.260;2023-01-29T13:14:21;19.40;47.60
59162;DHT22;44942;48.936;8.260;2023-01-29T13:19:28;19.40;47.60
59162;DHT22;44942;48.936;8.260;2023-01-29T13:24:39;19.40;47.70
59162;DHT22;44942;48.936;8.260;2023-01-29T13:29:42;19.40;47.90
59162;DHT22;44942;48.936;8.260;2023-01-29T13:34:45;19.50;48.70
59162;DHT22;44942;48.936;8.260;2023-01-29T13:39:50;19.50;48.00
59162;DHT22;44942;48.936;8.260;2023-01-29T13:44:57;19.50;48.00
59162;DHT22;44942;48.936;8.260;2023-01-29T13:50:05;19.50;48.10
59162;DHT22;44942;48.936;8.260;2023-01-29T13:55:21;19.50;48.10
59162;DHT22;44942;48.936;8.260;2023-01-29T14:06:01;19.60;48.30
59162;DHT22;44942;48.936;8.260;2023-01-29T14:26:30;19.60;48.40
59162;DHT22;44942;48.936;8.260;2023-01-29T14:36:42;19.70;48.60
59162;DHT22;44942;48.936;8.260;2023-01-29T14:41:44;19.70;48.60
59162;DHT22;44942;48.936;8.260;2023-01-29T14:46:45;19.70;48.60
59162;DHT22;44942;48.936;8.260;2023-01-29T14:51:46;19.70;48.60
59162;DHT22;44942;48.936;8.260;2023-01-29T14:57:01;19.70;48.60
59162;DHT22;44942;48.936;8.260;2023-01-29T15:02:16;19.80;48.80
59162;DHT22;44942;48.936;8.260;2023-01-29T15:07:36;19.80;48.90
59162;DHT22;44942;48.936;8.260;2023-01-29T15:12:49;19.80;49.10
59162;DHT22;44942;48.936;8.260;2023-01-29T15:18:07;19.80;49.30
59162;DHT22;44942;48.936;8.260;2023-01-29T15:23:28;19.80;49.50
59162;DHT22;44942;48.936;8.260;2023-01-29T15:28:31;19.80;49.80
59162;DHT22;44942;48.936;8.260;2023-01-29T15:33:34;19.80;49.80
59162;DHT22;44942;48.936;8.260;2023-01-29T15:38:37;19.90;50.10
59162;DHT22;44942;48.936;8.260;2023-01-29T15:43:42;19.90;50.20
59162;DHT22;44942;48.936;8.260;2023-01-29T15:48:44;19.90;50.50
59162;DHT22;44942;48.936;8.260;2023-01-29T15:53:58;19.90;50.60
59162;DHT22;44942;48.936;8.260;2023-01-29T15:59:01;19.90;50.80
59162;DHT22;44942;48.936;8.260;2023-01-29T16:04:03;19.90;50.90
59162;DHT22;44942;48.936;8.260;2023-01-29T16:09:04;19.90;50.90
59162;DHT22;44942;48.936;8.260;2023-01-29T16:14:06;20.00;51.00
59162;DHT22;44942;48.936;8.260;2023-01-29T16:19:20;20.00;51.20
59162;DHT22;44942;48.936;8.260;2023-01-29T16:24:22;20.00;51.40
59162;DHT22;44942;48.936;8.260;2023-01-29T16:29:30;20.00;51.40
59162;DHT22;44942;48.936;8.260;2023-01-29T16:34:35;20.00;51.50
59162;DHT22;44942;48.936;8.260;2023-01-29T16:39:44;20.00;51.60
59162;DHT22;44942;48.936;8.260;2023-01-29T16:45:03;20.00;52.30
59162;DHT22;44942;48.936;8.260;2023-01-29T16:55:21;20.00;51.80
59162;DHT22;44942;48.936;8.260;2023-01-29T17:00:25;20.10;51.80
59162;DHT22;44942;48.936;8.260;2023-01-29T17:05:29;20.00;51.90
59162;DHT22;44942;48.936;8.260;2023-01-29T17:10:31;20.10;51.90
59162;DHT22;44942;48.936;8.260;2023-01-29T17:20:42;20.10;51.90
59162;DHT22;44942;48.936;8.260;2023-01-29T17:25:43;20.10;51.90
59162;DHT22;44942;48.936;8.260;2023-01-29T17:30:44;20.10;51.90
59162;DHT22;44942;48.936;8.260;2023-01-29T17:35:44;20.10;51.80
59162;DHT22;44942;48.936;8.260;2023-01-29T17:40:55;20.10;51.80
59162;DHT22;44942;48.936;8.260;2023-01-29T17:45:56;20.10;51.80
59162;DHT22;44942;48.936;8.260;2023-01-29T17:51:02;20.10;51.70
59162;DHT22;44942;48.936;8.260;2023-01-29T17:56:04;20.10;51.70
59162;DHT22;44942;48.936;8.260;2023-01-29T18:01:04;20.10;51.50
59162;DHT22;44942;48.936;8.260;2023-01-29T18:06:08;20.10;51.50
59162;DHT22;44942;48.936;8.260;2023-01-29T18:11:11;20.10;51.50
59162;DHT22;44942;48.936;8.260;2023-01-29T18:16:12;20.10;51.50
59162;DHT22;44942;48.936;8.260;2023-01-29T18:21:13;20.20;51.50
59162;DHT22;44942;48.936;8.260;2023-01-29T18:26:15;20.20;51.40
59162;DHT22;44942;48.936;8.260;2023-01-29T18:31:16;20.20;51.50
59162;DHT22;44942;48.936;8.260;2023-01-29T18:36:16;20.10;51.40
59162;DHT22;44942;48.936;8.260;2023-01-29T18:41:17;20.20;51.50
59162;DHT22;44942;48.936;8.260;2023-01-29T18:46:18;20.20;51.50
59162;DHT22;44942;48.936;8.260;2023-01-29T18:51:19;20.20;51.50
59162;DHT22;44942;48.936;8.260;2023-01-29T18:56:19;20.20;51.50
59162;DHT22;44942;48.936;8.260;2023-01-29T19:01:20;20.20;51.50
59162;DHT22;44942;48.936;8.260;2023-01-29T19:06:20;20.20;51.60
59162;DHT22;44942;48.936;8.260;2023-01-29T19:11:21;20.20;51.60
59162;DHT22;44942;48.936;8.260;2023-01-29T19:16:22;20.20;51.70
59162;DHT22;44942;48.936;8.260;2023-01-29T19:21:22;20.20;51.70
59162;DHT22;44942;48.936;8.260;2023-01-29T19:26:23;20.20;51.70
59162;DHT22;44942;48.936;8.260;2023-01-29T19:31:24;20.20;51.70
59162;DHT22;44942;48.936;8.260;2023-01-29T19:36:25;20.20;51.70
59162;DHT22;44942;48.936;8.260;2023-01-29T19:41:25;20.20;51.70
59162;DHT22;44942;48.936;8.260;2023-01-29T19:46:26;20.20;51.70
59162;DHT22;44942;48.936;8.260;2023-01-29T19:51:28;20.20;51.70
59162;DHT22;44942;48.936;8.260;2023-01-29T19:56:29;20.20;52.40
59162;DHT22;44942;48.936;8.260;2023-01-29T20:01:29;20.20;51.70
59162;DHT22;44942;48.936;8.260;2023-01-29T20:06:30;20.30;51.80
59162;DHT22;44942;48.936;8.260;2023-01-29T20:11:31;20.30;51.80
59162;DHT22;44942;48.936;8.260;2023-01-29T20:16:31;20.30;51.80
59162;DHT22;44942;48.936;8.260;2023-01-29T20:21:32;20.30;51.90
59162;DHT22;44942;48.936;8.260;2023-01-29T20:26:32;20.30;51.90
59162;DHT22;44942;48.936;8.260;2023-01-29T20:31:33;20.30;51.90
59162;DHT22;44942;48.936;8.260;2023-01-29T20:36:34;20.30;51.90
59162;DHT22;44942;48.936;8.260;2023-01-29T20:41:34;20.30;51.80
59162;DHT22;44942;48.936;8.260;2023-01-29T20:46:36;20.30;51.90
59162;DHT22;44942;48.936;8.260;2023-01-29T20:51:37;20.30;51.90
59162;DHT22;44942;48.936;8.260;2023-01-29T20:56:38;20.30;51.90
59162;DHT22;44942;48.936;8.260;2023-01-29T21:01:41;20.30;51.90
59162;DHT22;44942;48.936;8.260;2023-01-29T21:06:41;20.30;51.90
59162;DHT22;44942;48.936;8.260;2023-01-29T21:11:42;20.40;51.90
59162;DHT22;44942;48.936;8.260;2023-01-29T21:16:44;20.40;51.90
59162;DHT22;44942;48.936;8.260;2023-01-29T21:21:44;20.40;52.00
59162;DHT22;44942;48.936;8.260;2023-01-29T21:26:45;20.40;51.90
59162;DHT22;44942;48.936;8.260;2023-01-29T21:31:46;20.40;51.90
59162;DHT22;44942;48.936;8.260;2023-01-29T21:36:46;20.40;52.00
59162;DHT22;44942;48.936;8.260;2023-01-29T21:41:48;20.40;51.90
59162;DHT22;44942;48.936;8.260;2023-01-29T21:47:08;20.40;51.90
59162;DHT22;44942;48.936;8.260;2023-01-29T21:52:12;20.40;52.00
59162;DHT22;44942;48.936;8.260;2023-01-29T21:57:14;20.40;52.10
59162;DHT22;44942;48.936;8.260;2023-01-29T22:02:15;20.40;52.00
59162;DHT22;44942;48.936;8.260;2023-01-29T22:07:15;20.40;52.10
59162;DHT22;44942;48.936;8.260;2023-01-29T22:12:16;20.40;52.20
59162;DHT22;44942;48.936;8.260;2023-01-29T22:17:16;20.50;52.20
59162;DHT22;44942;48.936;8.260;2023-01-29T22:22:19;20.50;52.20
59162;DHT22;44942;48.936;8.260;2023-01-29T22:27:20;20.40;52.10
59162;DHT22;44942;48.936;8.260;2023-01-29T22:32:20;20.50;52.20
59162;DHT22;44942;48.936;8.260;2023-01-29T22:37:21;20.50;52.10
59162;DHT22;44942;48.936;8.260;2023-01-29T22:42:22;20.50;52.20
59162;DHT22;44942;48.936;8.260;2023-01-29T22:47:22;20.50;52.10
59162;DHT22;44942;48.936;8.260;2023-01-29T22:52:23;20.50;52.10
59162;DHT22;44942;48.936;8.260;2023-01-29T22:57:23;20.50;52.80
59162;DHT22;44942;48.936;8.260;2023-01-29T23:02:24;20.50;52.10
59162;DHT22;44942;48.936;8.260;2023-01-29T23:07:24;20.50;52.20
59162;DHT22;44942;48.936;8.260;2023-01-29T23:12:25;20.50;52.20
59162;DHT22;44942;48.936;8.260;2023-01-29T23:17:25;20.50;52.20
59162;DHT22;44942;48.936;8.260;2023-01-29T23:22:26;20.50;52.10
59162;DHT22;44942;48.936;8.260;2023-01-29T23:27:27;20.50;52.10
59162;DHT22;44942;48.936;8.260;2023-01-29T23:32:27;20.50;52.20
59162;DHT22;44942;48.936;8.260;2023-01-29T23:37:28;20.50;52.10
59162;DHT22;44942;48.936;8.260;2023-01-29T23:42:28;20.50;52.10
59162;DHT22;44942;48.936;8.260;2023-01-29T23:47:29;20.50;52.10
59162;DHT22;44942;48.936;8.260;2023-01-29T23:52:29;20.50;52.10
59162;DHT22;44942;48.936;8.260;2023-01-29T23:57:30;20.50;52.20
